createdAt,value
2018-08-10T00:00:33.001Z,0.00
2018-08-10T00:01:39.013Z,0.00
2018-08-10T00:02:45.518Z,0.00
2018-08-10T00:03:51.999Z,0.00
2018-08-10T00:04:58.481Z,0.00
2018-08-10T00:06:04.972Z,0.00
2018-08-10T00:07:11.460Z,0.00
2018-08-10T00:08:17.957Z,0.00
2018-08-10T00:09:24.463Z,0.00
2018-08-10T00:10:30.924Z,0.00
2018-08-10T00:11:37.421Z,0.00
2018-08-10T00:12:43.899Z,0.00
2018-08-10T00:13:50.388Z,0.00
2018-08-10T00:14:56.880Z,0.00
2018-08-10T00:16:03.365Z,0.00
2018-08-10T00:17:09.839Z,0.00
2018-08-10T00:18:16.329Z,0.00
2018-08-10T00:19:22.826Z,0.00
2018-08-10T00:20:29.297Z,0.00
2018-08-10T00:21:35.782Z,0.00
2018-08-10T00:22:42.277Z,0.00
2018-08-10T00:23:48.753Z,0.00
2018-08-10T00:24:55.748Z,0.00
2018-08-10T00:26:01.712Z,0.00
2018-08-10T00:27:08.297Z,0.00
2018-08-10T00:28:14.668Z,0.00
2018-08-10T00:29:21.157Z,0.00
2018-08-10T00:30:27.635Z,0.00
2018-08-10T00:31:34.609Z,0.00
2018-08-10T00:32:40.591Z,0.00
2018-08-10T00:33:47.064Z,0.00
2018-08-10T00:34:53.549Z,0.00
2018-08-10T00:36:00.026Z,0.00
2018-08-10T00:37:06.499Z,0.00
2018-08-10T00:38:12.981Z,0.00
2018-08-10T00:39:19.448Z,0.00
2018-08-10T00:40:25.918Z,0.00
2018-08-10T00:41:32.391Z,0.00
2018-08-10T00:42:38.868Z,0.00
2018-08-10T00:43:45.329Z,0.00
2018-08-10T00:44:51.795Z,0.00
2018-08-10T00:45:58.262Z,0.00
2018-08-10T00:47:04.736Z,0.00
2018-08-10T00:48:11.206Z,0.00
2018-08-10T00:49:17.668Z,0.00
2018-08-10T00:50:24.124Z,0.00
2018-08-10T00:51:30.585Z,0.00
2018-08-10T00:52:37.044Z,0.00
2018-08-10T00:53:43.514Z,0.00
2018-08-10T00:54:49.990Z,0.00
2018-08-10T00:55:56.414Z,0.00
2018-08-10T00:57:02.892Z,0.00
2018-08-10T00:58:09.331Z,0.00
2018-08-10T00:59:15.793Z,0.00
2018-08-10T01:00:22.246Z,0.00
2018-08-10T01:01:28.707Z,0.00
2018-08-10T01:02:35.150Z,0.00
2018-08-10T01:03:42.608Z,0.00
2018-08-10T01:04:48.064Z,0.00
2018-08-10T01:05:54.501Z,0.00
2018-08-10T01:07:00.951Z,0.00
2018-08-10T01:08:07.412Z,0.00
2018-08-10T01:09:13.850Z,0.00
2018-08-10T01:10:20.309Z,0.00
2018-08-10T01:11:26.749Z,0.00
2018-08-10T01:12:33.289Z,0.00
2018-08-10T01:13:40.627Z,0.00
2018-08-10T01:14:46.081Z,0.00
2018-08-10T01:15:52.528Z,0.00
2018-08-10T01:16:58.950Z,0.00
2018-08-10T01:18:05.394Z,0.00
2018-08-10T01:19:11.854Z,0.00
2018-08-10T01:20:18.280Z,0.00
2018-08-10T01:21:24.708Z,0.00
2018-08-10T01:22:31.145Z,0.00
2018-08-10T01:23:37.585Z,0.00
2018-08-10T01:24:44.036Z,0.00
2018-08-10T01:25:50.452Z,0.00
2018-08-10T01:26:56.892Z,0.00
2018-08-10T01:28:03.315Z,0.00
2018-08-10T01:29:09.756Z,0.00
2018-08-10T01:30:16.196Z,0.00
2018-08-10T01:31:22.626Z,0.00
2018-08-10T01:32:29.054Z,0.00
2018-08-10T01:33:35.492Z,0.00
2018-08-10T01:34:41.946Z,0.00
2018-08-10T01:35:48.361Z,0.00
2018-08-10T01:36:54.799Z,0.00
2018-08-10T01:38:01.224Z,0.00
2018-08-10T01:39:07.678Z,0.00
2018-08-10T01:40:14.099Z,0.00
2018-08-10T01:41:20.526Z,0.00
2018-08-10T01:42:26.949Z,0.00
2018-08-10T01:43:34.385Z,0.00
2018-08-10T01:44:39.830Z,0.00
2018-08-10T01:45:46.253Z,0.00
2018-08-10T01:46:52.684Z,0.00
2018-08-10T01:47:59.122Z,0.00
2018-08-10T01:49:05.555Z,0.00
2018-08-10T01:50:11.989Z,0.00
2018-08-10T01:51:18.414Z,0.00
2018-08-10T01:52:24.845Z,0.00
2018-08-10T01:53:31.283Z,0.00
2018-08-10T01:54:37.709Z,0.00
2018-08-10T01:55:44.141Z,0.00
2018-08-10T01:56:50.565Z,0.00
2018-08-10T01:57:56.998Z,0.00
2018-08-10T01:59:03.415Z,0.00
2018-08-10T02:00:09.860Z,0.00
2018-08-10T02:01:16.282Z,0.00
2018-08-10T02:02:22.707Z,0.00
2018-08-10T02:03:29.143Z,0.00
2018-08-10T02:04:35.557Z,0.00
2018-08-10T02:05:41.995Z,0.00
2018-08-10T02:06:48.415Z,0.00
2018-08-10T02:07:54.834Z,0.00
2018-08-10T02:09:01.267Z,0.00
2018-08-10T02:10:07.698Z,0.00
2018-08-10T02:11:14.112Z,0.00
2018-08-10T02:12:20.539Z,0.00
2018-08-10T02:13:27.255Z,0.00
2018-08-10T02:14:33.375Z,0.00
2018-08-10T02:15:39.797Z,0.00
2018-08-10T02:16:47.210Z,0.00
2018-08-10T02:17:52.633Z,0.00
2018-08-10T02:18:59.047Z,0.00
2018-08-10T02:20:05.476Z,0.00
2018-08-10T02:21:11.892Z,0.00
2018-08-10T02:22:18.312Z,0.00
2018-08-10T02:23:24.732Z,0.00
2018-08-10T02:24:31.647Z,0.00
2018-08-10T02:25:37.573Z,0.00
2018-08-10T02:26:43.980Z,0.00
2018-08-10T02:27:50.412Z,0.00
2018-08-10T02:28:57.342Z,0.00
2018-08-10T02:30:03.252Z,0.00
2018-08-10T02:31:09.665Z,0.00
2018-08-10T02:32:16.092Z,0.00
2018-08-10T02:33:22.514Z,0.00
2018-08-10T02:34:28.924Z,0.00
2018-08-10T02:35:35.345Z,0.00
2018-08-10T02:36:41.757Z,0.00
2018-08-10T02:37:48.272Z,0.00
2018-08-10T02:38:54.585Z,0.00
2018-08-10T02:40:01.007Z,0.00
2018-08-10T02:41:07.404Z,0.00
2018-08-10T02:42:14.328Z,0.00
2018-08-10T02:43:20.245Z,0.00
2018-08-10T02:44:26.654Z,0.00
2018-08-10T02:45:33.077Z,0.00
2018-08-10T02:46:39.471Z,0.00
2018-08-10T02:47:45.894Z,0.00
2018-08-10T02:48:52.298Z,0.00
2018-08-10T02:49:58.708Z,0.00
2018-08-10T02:51:05.120Z,0.00
2018-08-10T02:52:11.526Z,0.00
2018-08-10T02:53:18.435Z,0.00
2018-08-10T02:54:24.343Z,0.00
2018-08-10T02:55:30.743Z,0.00
2018-08-10T02:56:37.151Z,0.00
2018-08-10T02:57:43.556Z,0.00
2018-08-10T02:58:49.966Z,0.00
2018-08-10T02:59:56.386Z,0.00
2018-08-10T03:01:02.789Z,0.00
2018-08-10T03:02:09.184Z,0.00
2018-08-10T03:03:16.086Z,0.00
2018-08-10T03:04:21.996Z,0.00
2018-08-10T03:05:28.405Z,0.00
2018-08-10T03:06:34.803Z,0.00
2018-08-10T03:07:41.194Z,0.00
2018-08-10T03:08:47.594Z,0.00
2018-08-10T03:09:53.996Z,0.00
2018-08-10T03:11:00.400Z,0.00
2018-08-10T03:12:06.792Z,0.00
2018-08-10T03:13:13.187Z,0.00
2018-08-10T03:14:19.574Z,0.00
2018-08-10T03:15:25.979Z,0.00
2018-08-10T03:16:32.360Z,0.00
2018-08-10T03:17:38.753Z,0.00
2018-08-10T03:18:45.142Z,0.00
2018-08-10T03:19:51.537Z,0.00
2018-08-10T03:20:57.931Z,0.00
2018-08-10T03:22:04.326Z,0.00
2018-08-10T03:23:10.719Z,0.00
2018-08-10T03:24:17.110Z,0.00
2018-08-10T03:25:23.501Z,0.00
2018-08-10T03:26:29.889Z,0.00
2018-08-10T03:27:36.286Z,0.00
2018-08-10T03:28:42.664Z,0.00
2018-08-10T03:29:49.064Z,0.00
2018-08-10T03:30:55.461Z,4.00
2018-08-10T03:32:01.837Z,4.00
2018-08-10T03:33:08.235Z,4.00
2018-08-10T03:34:14.612Z,4.00
2018-08-10T03:35:21.486Z,4.00
2018-08-10T03:36:27.408Z,8.00
2018-08-10T03:37:33.776Z,4.00
2018-08-10T03:38:40.656Z,4.00
2018-08-10T03:39:46.548Z,8.00
2018-08-10T03:40:52.944Z,8.00
2018-08-10T03:41:59.328Z,12.00
2018-08-10T03:43:05.703Z,12.00
2018-08-10T03:44:12.096Z,20.00
2018-08-10T03:45:18.482Z,20.00
2018-08-10T03:46:24.862Z,24.00
2018-08-10T03:47:31.243Z,28.00
2018-08-10T03:48:37.620Z,36.00
2018-08-10T03:49:44.053Z,40.00
2018-08-10T03:50:50.382Z,44.00
2018-08-10T03:51:56.754Z,52.00
2018-08-10T03:53:03.155Z,60.00
2018-08-10T03:54:09.515Z,68.00
2018-08-10T03:55:15.888Z,80.00
2018-08-10T03:56:22.273Z,92.00
2018-08-10T03:57:28.642Z,100.00
2018-08-10T03:58:35.036Z,116.00
2018-08-10T03:59:41.407Z,128.00
2018-08-10T04:00:47.784Z,144.00
2018-08-10T04:01:54.143Z,160.00
2018-08-10T04:03:00.519Z,176.00
2018-08-10T04:04:06.912Z,188.00
2018-08-10T04:05:13.265Z,208.00
2018-08-10T04:06:19.651Z,228.00
2018-08-10T04:07:26.022Z,244.00
2018-08-10T04:08:33.379Z,268.00
2018-08-10T04:09:38.754Z,292.00
2018-08-10T04:10:45.134Z,316.00
2018-08-10T04:11:51.504Z,356.00
2018-08-10T04:12:57.866Z,416.00
2018-08-10T04:14:04.237Z,484.00
2018-08-10T04:15:10.617Z,556.00
2018-08-10T04:16:17.482Z,616.00
2018-08-10T04:17:23.337Z,664.00
2018-08-10T04:18:29.710Z,716.00
2018-08-10T04:19:36.070Z,764.00
2018-08-10T04:20:42.932Z,812.00
2018-08-10T04:21:48.821Z,844.00
2018-08-10T04:22:55.172Z,880.00
2018-08-10T04:24:01.548Z,908.00
2018-08-10T04:25:07.911Z,932.00
2018-08-10T04:26:14.280Z,956.00
2018-08-10T04:27:20.660Z,976.00
2018-08-10T04:28:27.005Z,996.00
2018-08-10T04:29:33.373Z,1008.00
2018-08-10T04:30:39.729Z,1036.00
2018-08-10T04:31:46.105Z,1072.00
2018-08-10T04:32:52.451Z,1112.00
2018-08-10T04:33:58.807Z,1152.00
2018-08-10T04:35:05.184Z,1196.00
2018-08-10T04:36:11.546Z,1240.00
2018-08-10T04:37:17.920Z,1276.00
2018-08-10T04:38:24.299Z,1300.00
2018-08-10T04:39:30.634Z,1312.00
2018-08-10T04:40:36.991Z,1340.00
2018-08-10T04:41:43.861Z,1388.00
2018-08-10T04:42:49.719Z,1432.00
2018-08-10T04:43:56.576Z,1460.00
2018-08-10T04:45:02.449Z,1496.00
2018-08-10T04:46:08.835Z,1520.00
2018-08-10T04:47:15.170Z,1552.00
2018-08-10T04:48:21.528Z,1600.00
2018-08-10T04:49:27.879Z,1648.00
2018-08-10T04:50:34.239Z,1664.00
2018-08-10T04:51:40.626Z,1676.00
2018-08-10T04:52:46.982Z,1688.00
2018-08-10T04:53:53.345Z,1712.00
2018-08-10T04:54:59.770Z,1740.00
2018-08-10T04:56:06.079Z,1796.00
2018-08-10T04:57:12.415Z,1840.00
2018-08-10T04:58:18.780Z,1900.00
2018-08-10T04:59:25.150Z,1964.00
2018-08-10T05:00:31.521Z,2032.00
2018-08-10T05:01:37.879Z,2080.00
2018-08-10T05:02:44.233Z,2156.00
2018-08-10T05:03:50.620Z,2228.00
2018-08-10T05:04:56.945Z,2284.00
2018-08-10T05:06:03.316Z,2348.00
2018-08-10T05:07:09.689Z,2404.00
2018-08-10T05:08:16.042Z,2452.00
2018-08-10T05:09:22.401Z,2496.00
2018-08-10T05:10:28.776Z,2532.00
2018-08-10T05:11:35.162Z,2572.00
2018-08-10T05:12:41.500Z,2608.00
2018-08-10T05:13:47.865Z,2644.00
2018-08-10T05:14:54.222Z,2660.00
2018-08-10T05:16:00.602Z,2668.00
2018-08-10T05:17:06.981Z,2700.00
2018-08-10T05:18:13.335Z,2756.00
2018-08-10T05:19:19.692Z,2792.00
2018-08-10T05:20:26.067Z,2808.00
2018-08-10T05:21:32.438Z,2844.00
2018-08-10T05:22:38.802Z,2876.00
2018-08-10T05:23:45.173Z,2912.00
2018-08-10T05:24:51.552Z,2932.00
2018-08-10T05:25:57.935Z,2952.00
2018-08-10T05:27:04.316Z,2964.00
2018-08-10T05:28:10.678Z,2976.00
2018-08-10T05:29:17.062Z,2996.00
2018-08-10T05:30:23.441Z,3012.00
2018-08-10T05:31:29.834Z,3024.00
2018-08-10T05:32:36.207Z,3044.00
2018-08-10T05:33:42.582Z,3060.00
2018-08-10T05:34:49.037Z,3072.00
2018-08-10T05:35:55.341Z,3084.00
2018-08-10T05:37:01.739Z,3104.00
2018-08-10T05:38:08.120Z,3124.00
2018-08-10T05:39:14.523Z,3156.00
2018-08-10T05:40:20.897Z,3188.00
2018-08-10T05:41:27.301Z,3220.00
2018-08-10T05:42:33.712Z,3240.00
2018-08-10T05:43:40.073Z,3252.00
2018-08-10T05:44:46.457Z,3264.00
2018-08-10T05:45:52.869Z,3284.00
2018-08-10T05:46:59.340Z,3296.00
2018-08-10T05:48:05.723Z,3308.00
2018-08-10T05:49:12.021Z,3316.00
2018-08-10T05:50:18.420Z,3328.00
2018-08-10T05:51:24.820Z,3336.00
2018-08-10T05:52:31.328Z,3340.00
2018-08-10T05:53:37.609Z,3344.00
2018-08-10T05:54:44.009Z,3360.00
2018-08-10T05:55:50.909Z,3372.00
2018-08-10T05:56:56.818Z,3384.00
2018-08-10T05:58:03.210Z,3408.00
2018-08-10T05:59:09.619Z,3424.00
2018-08-10T06:00:16.001Z,3452.00
2018-08-10T06:01:22.411Z,3472.00
2018-08-10T06:02:28.816Z,3492.00
2018-08-10T06:03:35.250Z,3512.00
2018-08-10T06:04:41.618Z,3524.00
2018-08-10T06:05:48.014Z,3536.00
2018-08-10T06:06:54.436Z,3540.00
2018-08-10T06:08:00.836Z,3552.00
2018-08-10T06:09:07.247Z,3560.00
2018-08-10T06:10:13.645Z,3568.00
2018-08-10T06:11:20.056Z,3568.00
2018-08-10T06:12:26.474Z,3572.00
2018-08-10T06:13:32.889Z,3580.00
2018-08-10T06:14:39.792Z,3596.00
2018-08-10T06:15:45.711Z,3608.00
2018-08-10T06:16:52.131Z,3632.00
2018-08-10T06:17:58.543Z,3672.00
2018-08-10T06:19:04.973Z,3708.00
2018-08-10T06:20:11.377Z,3744.00
2018-08-10T06:21:17.789Z,3824.00
2018-08-10T06:22:24.210Z,3936.00
2018-08-10T06:23:30.623Z,4008.00
2018-08-10T06:24:37.045Z,4004.00
2018-08-10T06:25:43.472Z,4088.00
2018-08-10T06:26:50.387Z,4208.00
2018-08-10T06:27:56.469Z,4268.00
2018-08-10T06:29:02.753Z,4368.00
2018-08-10T06:30:09.177Z,4612.00
2018-08-10T06:31:15.603Z,4944.00
2018-08-10T06:32:22.050Z,5364.00
2018-08-10T06:33:28.468Z,5952.00
2018-08-10T06:34:34.901Z,6796.00
2018-08-10T06:35:41.336Z,7764.00
2018-08-10T06:36:47.801Z,9304.00
2018-08-10T06:37:54.227Z,10264.00
2018-08-10T06:39:00.692Z,9600.00
2018-08-10T06:40:07.150Z,11416.00
2018-08-10T06:41:13.627Z,11488.00
2018-08-10T06:42:20.115Z,12188.00
2018-08-10T06:43:26.593Z,12532.00
2018-08-10T06:44:33.084Z,13016.00
2018-08-10T06:45:39.589Z,11964.00
2018-08-10T06:46:46.085Z,10488.00
2018-08-10T06:47:52.602Z,9680.00
2018-08-10T06:48:59.105Z,9636.00
2018-08-10T06:50:05.625Z,8788.00
2018-08-10T06:51:12.172Z,7948.00
2018-08-10T06:52:18.649Z,7708.00
2018-08-10T06:53:25.144Z,7732.00
2018-08-10T06:54:31.647Z,7584.00
2018-08-10T06:55:38.198Z,8436.00
2018-08-10T06:56:44.680Z,9868.00
2018-08-10T06:57:51.213Z,11480.00
2018-08-10T06:58:57.705Z,9620.00
2018-08-10T07:00:04.232Z,8668.00
2018-08-10T07:01:10.818Z,8116.00
2018-08-10T07:02:17.286Z,8812.00
2018-08-10T07:03:23.804Z,9920.00
2018-08-10T07:04:30.323Z,10512.00
2018-08-10T07:05:36.861Z,11064.00
2018-08-10T07:06:43.391Z,10416.00
2018-08-10T07:07:49.981Z,9260.00
2018-08-10T07:08:56.489Z,8136.00
2018-08-10T07:10:03.041Z,7708.00
2018-08-10T07:11:10.585Z,7136.00
2018-08-10T07:12:16.145Z,6056.00
2018-08-10T07:13:22.854Z,6040.00
2018-08-10T07:14:29.738Z,5704.00
2018-08-10T07:15:35.769Z,6100.00
2018-08-10T07:16:42.321Z,7144.00
2018-08-10T07:17:48.870Z,7820.00
2018-08-10T07:18:55.904Z,7608.00
2018-08-10T07:20:01.955Z,8640.00
2018-08-10T07:21:08.513Z,8048.00
2018-08-10T07:22:15.073Z,7428.00
2018-08-10T07:23:21.630Z,8360.00
2018-08-10T07:24:29.177Z,9164.00
2018-08-10T07:25:34.758Z,9540.00
2018-08-10T07:26:41.323Z,9612.00
2018-08-10T07:27:47.895Z,9680.00
2018-08-10T07:28:54.465Z,9640.00
2018-08-10T07:30:01.041Z,9332.00
2018-08-10T07:31:07.605Z,9188.00
2018-08-10T07:32:14.286Z,9444.00
2018-08-10T07:33:20.780Z,9032.00
2018-08-10T07:34:27.355Z,9256.00
2018-08-10T07:35:33.937Z,7996.00
2018-08-10T07:36:40.514Z,7208.00
2018-08-10T07:37:47.101Z,6916.00
2018-08-10T07:38:53.668Z,7644.00
2018-08-10T07:40:00.244Z,7376.00
2018-08-10T07:41:06.808Z,6856.00
2018-08-10T07:42:13.404Z,6108.00
2018-08-10T07:43:19.967Z,6232.00
2018-08-10T07:44:26.510Z,6696.00
2018-08-10T07:45:33.074Z,6012.00
2018-08-10T07:46:39.632Z,7492.00
2018-08-10T07:47:46.282Z,7780.00
2018-08-10T07:48:52.746Z,10008.00
2018-08-10T07:49:59.310Z,11120.00
2018-08-10T07:51:05.872Z,10180.00
2018-08-10T07:52:12.516Z,10772.00
2018-08-10T07:53:19.038Z,11776.00
2018-08-10T07:54:25.604Z,11740.00
2018-08-10T07:55:32.190Z,12624.00
2018-08-10T07:56:38.779Z,11792.00
2018-08-10T07:57:45.395Z,11436.00
2018-08-10T07:58:52.015Z,10220.00
2018-08-10T07:59:58.585Z,11032.00
2018-08-10T08:01:05.204Z,11900.00
2018-08-10T08:02:11.808Z,14588.00
2018-08-10T08:03:18.510Z,15352.00
2018-08-10T08:04:25.068Z,12516.00
2018-08-10T08:05:31.699Z,12380.00
2018-08-10T08:06:38.337Z,11984.00
2018-08-10T08:07:44.985Z,11408.00
2018-08-10T08:08:51.619Z,12588.00
2018-08-10T08:09:58.270Z,14732.00
2018-08-10T08:11:05.417Z,13660.00
2018-08-10T08:12:11.568Z,13520.00
2018-08-10T08:13:18.259Z,12720.00
2018-08-10T08:14:24.895Z,11752.00
2018-08-10T08:15:31.578Z,11368.00
2018-08-10T08:16:38.222Z,11124.00
2018-08-10T08:17:44.875Z,11988.00
2018-08-10T08:18:51.530Z,13928.00
2018-08-10T08:19:58.315Z,14248.00
2018-08-10T08:21:04.837Z,12816.00
2018-08-10T08:22:11.492Z,11816.00
2018-08-10T08:23:18.161Z,12572.00
2018-08-10T08:24:25.003Z,13524.00
2018-08-10T08:25:31.481Z,13952.00
2018-08-10T08:26:38.147Z,13304.00
2018-08-10T08:27:45.821Z,13412.00
2018-08-10T08:28:51.477Z,13368.00
2018-08-10T08:29:58.266Z,11100.00
2018-08-10T08:31:04.826Z,13992.00
2018-08-10T08:32:11.488Z,15328.00
2018-08-10T08:33:18.183Z,14232.00
2018-08-10T08:34:24.855Z,12500.00
2018-08-10T08:35:31.534Z,11884.00
2018-08-10T08:36:38.222Z,11304.00
2018-08-10T08:37:44.913Z,12536.00
2018-08-10T08:38:51.589Z,12716.00
2018-08-10T08:39:58.266Z,12544.00
2018-08-10T08:41:04.980Z,12160.00
2018-08-10T08:42:11.824Z,12496.00
2018-08-10T08:43:18.321Z,14600.00
2018-08-10T08:44:24.986Z,13224.00
2018-08-10T08:45:31.770Z,13156.00
2018-08-10T08:46:39.108Z,13124.00
2018-08-10T08:47:45.049Z,12936.00
2018-08-10T08:48:51.725Z,14064.00
2018-08-10T08:49:58.416Z,15416.00
2018-08-10T08:51:05.091Z,14348.00
2018-08-10T08:52:11.799Z,12836.00
2018-08-10T08:53:18.499Z,11412.00
2018-08-10T08:54:25.183Z,11952.00
2018-08-10T08:55:31.877Z,12432.00
2018-08-10T08:56:39.072Z,12532.00
2018-08-10T08:57:45.272Z,14080.00
2018-08-10T08:58:51.959Z,13956.00
2018-08-10T08:59:58.654Z,15012.00
2018-08-10T09:01:05.353Z,17276.00
2018-08-10T09:02:12.063Z,15060.00
2018-08-10T09:03:18.774Z,12768.00
2018-08-10T09:04:25.470Z,11312.00
2018-08-10T09:05:32.184Z,10712.00
2018-08-10T09:06:38.884Z,11076.00
2018-08-10T09:07:45.660Z,11860.00
2018-08-10T09:08:52.271Z,12276.00
2018-08-10T09:09:59.011Z,11840.00
2018-08-10T09:11:05.722Z,11748.00
2018-08-10T09:12:12.361Z,11984.00
2018-08-10T09:13:19.064Z,12200.00
2018-08-10T09:14:26.249Z,13352.00
2018-08-10T09:15:32.429Z,14828.00
2018-08-10T09:16:39.117Z,14800.00
2018-08-10T09:17:45.809Z,15740.00
2018-08-10T09:18:52.522Z,15172.00
2018-08-10T09:19:59.713Z,17568.00
2018-08-10T09:21:05.931Z,15748.00
2018-08-10T09:22:12.642Z,16752.00
2018-08-10T09:23:19.410Z,17160.00
2018-08-10T09:24:26.106Z,17856.00
2018-08-10T09:25:32.828Z,17600.00
2018-08-10T09:26:39.563Z,19296.00
2018-08-10T09:27:46.315Z,18528.00
2018-08-10T09:28:53.075Z,17344.00
2018-08-10T09:29:59.829Z,16172.00
2018-08-10T09:31:06.581Z,15664.00
2018-08-10T09:32:13.342Z,13680.00
2018-08-10T09:33:20.612Z,13640.00
2018-08-10T09:34:26.861Z,11048.00
2018-08-10T09:35:33.588Z,10000.00
2018-08-10T09:36:40.336Z,11260.00
2018-08-10T09:37:48.064Z,11452.00
2018-08-10T09:38:53.799Z,11876.00
2018-08-10T09:40:00.533Z,11784.00
2018-08-10T09:41:07.240Z,11800.00
2018-08-10T09:42:13.998Z,12180.00
2018-08-10T09:43:20.683Z,13784.00
2018-08-10T09:44:27.397Z,15008.00
2018-08-10T09:45:34.124Z,15384.00
2018-08-10T09:46:40.840Z,15104.00
2018-08-10T09:47:47.591Z,13780.00
2018-08-10T09:48:54.302Z,13052.00
2018-08-10T09:50:01.026Z,13696.00
2018-08-10T09:51:07.752Z,13124.00
2018-08-10T09:52:14.482Z,14344.00
2018-08-10T09:53:21.196Z,15332.00
2018-08-10T09:54:27.913Z,19264.00
2018-08-10T09:55:34.628Z,23392.00
2018-08-10T09:56:41.868Z,24384.00
2018-08-10T09:57:48.144Z,22912.00
2018-08-10T09:58:55.899Z,18400.00
2018-08-10T10:00:01.681Z,19872.00
2018-08-10T10:01:08.464Z,20768.00
2018-08-10T10:02:15.241Z,20096.00
2018-08-10T10:03:22.049Z,19072.00
2018-08-10T10:04:28.838Z,18368.00
2018-08-10T10:05:35.642Z,18752.00
2018-08-10T10:06:42.497Z,18944.00
2018-08-10T10:07:49.247Z,19392.00
2018-08-10T10:08:56.094Z,19744.00
2018-08-10T10:10:02.844Z,20448.00
2018-08-10T10:11:09.641Z,20512.00
2018-08-10T10:12:16.465Z,19776.00
2018-08-10T10:13:23.284Z,20192.00
2018-08-10T10:14:30.078Z,20032.00
2018-08-10T10:15:36.889Z,21120.00
2018-08-10T10:16:43.687Z,21312.00
2018-08-10T10:17:50.509Z,22336.00
2018-08-10T10:18:57.324Z,23392.00
2018-08-10T10:20:04.141Z,23712.00
2018-08-10T10:21:11.072Z,20672.00
2018-08-10T10:22:17.808Z,22432.00
2018-08-10T10:23:24.643Z,21952.00
2018-08-10T10:24:31.481Z,18528.00
2018-08-10T10:25:38.294Z,17484.00
2018-08-10T10:26:45.116Z,19040.00
2018-08-10T10:27:51.946Z,22592.00
2018-08-10T10:28:58.776Z,25856.00
2018-08-10T10:30:05.596Z,25344.00
2018-08-10T10:31:12.432Z,22816.00
2018-08-10T10:32:19.270Z,22816.00
2018-08-10T10:33:27.103Z,20576.00
2018-08-10T10:34:32.976Z,19392.00
2018-08-10T10:35:39.779Z,19936.00
2018-08-10T10:36:46.605Z,21152.00
2018-08-10T10:37:53.431Z,21760.00
2018-08-10T10:39:00.269Z,25536.00
2018-08-10T10:40:07.108Z,25184.00
2018-08-10T10:41:13.927Z,21568.00
2018-08-10T10:42:20.782Z,17216.00
2018-08-10T10:43:27.608Z,14464.00
2018-08-10T10:44:34.451Z,14264.00
2018-08-10T10:45:41.256Z,14132.00
2018-08-10T10:46:48.087Z,16524.00
2018-08-10T10:47:54.876Z,20928.00
2018-08-10T10:49:01.701Z,21440.00
2018-08-10T10:50:08.504Z,19360.00
2018-08-10T10:51:15.325Z,17888.00
2018-08-10T10:52:22.676Z,16848.00
2018-08-10T10:53:28.954Z,18432.00
2018-08-10T10:54:35.764Z,19584.00
2018-08-10T10:55:42.575Z,23040.00
2018-08-10T10:56:49.496Z,25984.00
2018-08-10T10:57:56.240Z,25984.00
2018-08-10T10:59:03.092Z,25664.00
2018-08-10T11:00:09.945Z,24128.00
2018-08-10T11:01:16.808Z,24352.00
2018-08-10T11:02:23.682Z,25440.00
2018-08-10T11:03:30.548Z,27264.00
2018-08-10T11:04:37.426Z,27904.00
2018-08-10T11:05:44.302Z,27488.00
2018-08-10T11:06:51.195Z,24800.00
2018-08-10T11:07:58.069Z,21472.00
2018-08-10T11:09:04.962Z,19296.00
2018-08-10T11:10:11.839Z,18176.00
2018-08-10T11:11:18.712Z,15404.00
2018-08-10T11:12:25.581Z,13956.00
2018-08-10T11:13:32.424Z,13124.00
2018-08-10T11:14:39.272Z,13504.00
2018-08-10T11:15:46.096Z,15296.00
2018-08-10T11:16:52.924Z,13288.00
2018-08-10T11:17:59.793Z,12068.00
2018-08-10T11:19:06.574Z,10520.00
2018-08-10T11:20:13.383Z,9548.00
2018-08-10T11:21:20.181Z,8548.00
2018-08-10T11:22:26.974Z,7652.00
2018-08-10T11:23:33.739Z,6396.00
2018-08-10T11:24:40.999Z,5992.00
2018-08-10T11:25:47.375Z,6108.00
2018-08-10T11:26:54.013Z,6868.00
2018-08-10T11:28:00.747Z,8716.00
2018-08-10T11:29:07.484Z,11332.00
2018-08-10T11:30:14.230Z,12308.00
2018-08-10T11:31:21.445Z,12104.00
2018-08-10T11:32:27.691Z,11452.00
2018-08-10T11:33:34.431Z,10832.00
2018-08-10T11:34:41.177Z,10696.00
2018-08-10T11:35:48.212Z,11056.00
2018-08-10T11:36:54.657Z,11196.00
2018-08-10T11:38:01.392Z,12112.00
2018-08-10T11:39:08.134Z,13692.00
2018-08-10T11:40:14.878Z,14920.00
2018-08-10T11:41:21.660Z,15276.00
2018-08-10T11:42:28.364Z,14876.00
2018-08-10T11:43:35.123Z,14520.00
2018-08-10T11:44:41.879Z,13324.00
2018-08-10T11:45:49.116Z,11784.00
2018-08-10T11:46:55.384Z,10512.00
2018-08-10T11:48:02.632Z,9600.00
2018-08-10T11:49:09.382Z,8776.00
2018-08-10T11:50:15.626Z,7976.00
2018-08-10T11:51:22.352Z,7320.00
2018-08-10T11:52:29.121Z,7020.00
2018-08-10T11:53:35.803Z,6776.00
2018-08-10T11:54:42.512Z,6460.00
2018-08-10T11:55:49.210Z,6108.00
2018-08-10T11:56:55.927Z,5904.00
2018-08-10T11:58:02.628Z,6096.00
2018-08-10T11:59:09.334Z,6496.00
2018-08-10T12:00:16.020Z,7176.00
2018-08-10T12:01:22.714Z,7368.00
2018-08-10T12:02:29.394Z,7456.00
2018-08-10T12:03:36.091Z,7756.00
2018-08-10T12:04:42.803Z,8368.00
2018-08-10T12:05:49.511Z,9884.00
2018-08-10T12:06:56.140Z,13492.00
2018-08-10T12:08:02.847Z,16428.00
2018-08-10T12:09:09.582Z,23616.00
2018-08-10T12:10:18.794Z,118496.00
2018-08-10T12:11:23.218Z,24192.00
2018-08-10T12:12:30.166Z,16204.00
2018-08-10T12:13:37.045Z,14500.00
2018-08-10T12:14:43.931Z,14228.00
2018-08-10T12:15:50.801Z,14456.00
2018-08-10T12:16:57.665Z,13120.00
2018-08-10T12:18:04.513Z,12732.00
2018-08-10T12:19:12.875Z,13688.00
2018-08-10T12:20:18.301Z,15444.00
2018-08-10T12:21:24.999Z,17408.00
2018-08-10T12:22:31.817Z,17568.00
2018-08-10T12:23:38.629Z,17056.00
2018-08-10T12:24:45.558Z,16004.00
2018-08-10T12:25:52.261Z,15444.00
2018-08-10T12:26:59.054Z,15200.00
2018-08-10T12:28:05.863Z,13092.00
2018-08-10T12:29:12.669Z,12352.00
2018-08-10T12:30:19.562Z,12352.00
2018-08-10T12:31:26.263Z,12928.00
2018-08-10T12:32:33.053Z,13064.00
2018-08-10T12:33:39.844Z,13412.00
2018-08-10T12:34:46.638Z,12424.00
2018-08-10T12:35:53.432Z,11032.00
2018-08-10T12:37:00.194Z,10060.00
2018-08-10T12:38:06.977Z,8828.00
2018-08-10T12:39:13.742Z,8104.00
2018-08-10T12:40:20.494Z,7944.00
2018-08-10T12:41:27.245Z,8060.00
2018-08-10T12:42:34.476Z,7888.00
2018-08-10T12:43:40.730Z,7408.00
2018-08-10T12:44:47.482Z,6804.00
2018-08-10T12:45:54.206Z,6488.00
2018-08-10T12:47:00.929Z,6304.00
2018-08-10T12:48:07.683Z,6544.00
2018-08-10T12:49:14.370Z,6616.00
2018-08-10T12:50:21.182Z,6792.00
2018-08-10T12:51:28.302Z,7272.00
2018-08-10T12:52:34.510Z,8160.00
2018-08-10T12:53:41.710Z,9452.00
2018-08-10T12:54:47.936Z,11172.00
2018-08-10T12:55:54.628Z,13120.00
2018-08-10T12:57:01.338Z,15984.00
2018-08-10T12:58:08.038Z,19072.00
2018-08-10T12:59:14.727Z,23136.00
2018-08-10T13:00:21.447Z,29088.00
2018-08-10T13:01:28.147Z,37024.00
2018-08-10T13:02:34.939Z,119904.00
2018-08-10T13:03:41.678Z,145984.00
2018-08-10T13:04:48.569Z,145760.00
2018-08-10T13:05:55.515Z,129952.00
2018-08-10T13:07:02.531Z,50624.00
2018-08-10T13:08:09.572Z,107936.00
2018-08-10T13:09:16.646Z,112096.00
2018-08-10T13:10:23.783Z,110816.00
2018-08-10T13:11:30.926Z,111552.00
2018-08-10T13:12:38.122Z,110368.00
2018-08-10T13:13:45.353Z,105472.00
2018-08-10T13:14:53.120Z,97472.00
2018-08-10T13:15:59.908Z,82464.00
2018-08-10T13:17:07.280Z,79552.00
2018-08-10T13:18:14.520Z,92192.00
2018-08-10T13:19:21.860Z,105312.00
2018-08-10T13:20:29.243Z,110304.00
2018-08-10T13:21:36.621Z,110080.00
2018-08-10T13:22:44.026Z,110016.00
2018-08-10T13:23:51.526Z,99552.00
2018-08-10T13:24:58.932Z,60512.00
2018-08-10T13:26:06.397Z,86560.00
2018-08-10T13:27:13.897Z,96256.00
2018-08-10T13:28:21.386Z,117312.00
2018-08-10T13:29:28.914Z,83904.00
2018-08-10T13:30:36.425Z,85632.00
2018-08-10T13:31:44.415Z,50304.00
2018-08-10T13:32:51.413Z,37536.00
2018-08-10T13:33:59.020Z,34784.00
2018-08-10T13:35:07.277Z,37280.00
2018-08-10T13:36:13.585Z,47072.00
2018-08-10T13:37:20.901Z,110080.00